Time;durP1;ratioP1;P1;durP2;ratioP2;P2;SDS_P1;SDS_P2;PMS_P1;PMS_P2;Temp;Humidity;BMP_temperature;BMP_pressure;BME280_temperature;BME280_humidity;BME280_pressure;Samples;Min_cycle;Max_cycle;Signal;HPM_P1;HPM_P2
2022/12/26 00:02:09;;;;;;;3.38;2.63;;;7.10;99.00;;;;;;5059416;28;20544;-86
2022/12/26 00:04:36;;;;;;;5.28;2.47;;;7.10;99.00;;;;;;5064955;28;20203;-86
2022/12/26 00:07:03;;;;;;;2.55;2.20;;;7.00;99.20;;;;;;5070181;28;20595;-86
2022/12/26 00:09:32;;;;;;;2.20;2.00;;;7.00;99.40;;;;;;5062186;28;20233;-86
2022/12/26 00:12:00;;;;;;;2.15;1.92;;;7.00;99.40;;;;;;5064198;28;20280;-86
2022/12/26 00:14:27;;;;;;;1.98;1.80;;;7.00;99.40;;;;;;5059606;28;20209;-86
2022/12/26 00:16:54;;;;;;;2.20;2.00;;;6.90;99.40;;;;;;5060893;28;20208;-86
2022/12/26 00:19:20;;;;;;;3.67;2.65;;;7.00;99.50;;;;;;5063747;28;20190;-85
2022/12/26 00:21:47;;;;;;;2.45;2.08;;;6.90;99.40;;;;;;5067377;28;20225;-86
2022/12/26 00:24:14;;;;;;;2.17;1.75;;;6.90;99.40;;;;;;5067120;28;20235;-86
2022/12/26 00:26:41;;;;;;;2.35;2.10;;;6.90;99.20;;;;;;5061638;28;20209;-86
2022/12/26 00:29:09;;;;;;;2.70;1.92;;;6.90;99.20;;;;;;5067104;28;20791;-86
2022/12/26 00:31:36;;;;;;;1.80;1.70;;;6.80;99.30;;;;;;5066532;28;20209;-86
2022/12/26 00:34:03;;;;;;;2.78;1.60;;;6.80;99.20;;;;;;5069413;28;20752;-86
2022/12/26 00:36:32;;;;;;;1.70;1.60;;;6.80;99.20;;;;;;5067000;28;20197;-86
2022/12/26 00:39:00;;;;;;;1.70;1.60;;;6.90;99.00;;;;;;5068060;28;20205;-86
2022/12/26 00:41:28;;;;;;;1.80;1.65;;;6.90;98.90;;;;;;5067973;28;20196;-86
2022/12/26 00:43:55;;;;;;;2.20;1.88;;;6.80;99.00;;;;;;5064643;28;20672;-86
2022/12/26 00:46:24;;;;;;;2.00;1.80;;;6.80;99.10;;;;;;5062687;28;20603;-86
2022/12/26 00:48:51;;;;;;;2.05;1.67;;;6.70;99.10;;;;;;5065500;28;20232;-86
2022/12/26 00:51:18;;;;;;;2.78;1.67;;;6.70;99.30;;;;;;5063052;28;20194;-86
2022/12/26 00:53:45;;;;;;;1.75;1.52;;;6.70;99.20;;;;;;5064939;28;20204;-86
2022/12/26 00:56:12;;;;;;;2.00;1.58;;;6.70;99.00;;;;;;5064431;28;20585;-86
2022/12/26 00:58:39;;;;;;;2.55;1.80;;;6.80;98.80;;;;;;5064528;28;20675;-86
2022/12/26 01:01:08;;;;;;;2.15;1.60;;;6.70;98.60;;;;;;5059059;28;20205;-85
2022/12/26 01:03:37;;;;;;;3.88;1.63;;;6.70;98.80;;;;;;5053981;28;20202;-86
2022/12/26 01:06:04;;;;;;;1.95;1.70;;;6.70;98.90;;;;;;5065110;28;20581;-86
2022/12/26 01:08:32;;;;;;;2.22;1.63;;;6.70;98.90;;;;;;5066708;28;20213;-86
2022/12/26 01:11:04;;;;;;;1.75;1.60;;;6.70;98.80;;;;;;5057949;28;20240;-86
2022/12/26 01:13:31;;;;;;;1.80;1.70;;;6.60;98.80;;;;;;5063622;28;20193;-86
2022/12/26 01:15:57;;;;;;;1.98;1.48;;;6.60;99.00;;;;;;5064887;28;20197;-86
2022/12/26 01:18:24;;;;;;;2.72;1.70;;;6.60;99.00;;;;;;5063397;28;20205;-86
2022/12/26 01:20:58;;;;;;;1.80;1.70;;;6.60;98.70;;;;;;5057400;28;20676;-86
2022/12/26 01:23:25;;;;;;;1.83;1.40;;;6.50;98.60;;;;;;5061629;28;20225;-86
2022/12/26 01:25:52;;;;;;;2.03;1.30;;;6.50;98.80;;;;;;5059849;28;20680;-86
2022/12/26 01:28:19;;;;;;;1.92;1.70;;;6.30;99.00;;;;;;5065745;28;20268;-86
2022/12/26 01:30:46;;;;;;;1.40;1.30;;;6.20;99.30;;;;;;5065442;28;20276;-86
2022/12/26 01:33:12;;;;;;;2.08;1.50;;;6.20;99.60;;;;;;5060237;28;20210;-85
2022/12/26 01:35:39;;;;;;;1.95;1.50;;;6.20;99.70;;;;;;5061348;28;20654;-86
2022/12/26 01:38:07;;;;;;;1.70;1.42;;;6.20;99.60;;;;;;5064448;28;20204;-85
2022/12/26 01:40:34;;;;;;;1.83;1.42;;;6.20;99.50;;;;;;5066637;28;20197;-86
2022/12/26 01:43:01;;;;;;;1.88;1.55;;;6.10;99.30;;;;;;5058004;28;20201;-86
2022/12/26 01:45:30;;;;;;;1.77;1.58;;;6.20;99.20;;;;;;5065068;28;20212;-85
2022/12/26 01:48:03;;;;;;;1.45;1.35;;;6.20;99.00;;;;;;5061314;28;20225;-86
2022/12/26 01:50:37;;;;;;;3.45;1.33;;;6.10;99.10;;;;;;5059998;28;20810;-86
2022/12/26 01:53:10;;;;;;;2.10;1.50;;;6.00;99.20;;;;;;5059347;28;20668;-86
2022/12/26 01:55:38;;;;;;;4.85;1.30;;;5.90;99.40;;;;;;5064161;28;20198;-85
2022/12/26 01:58:11;;;;;;;2.65;1.50;;;5.90;99.50;;;;;;5064057;28;20978;-86
2022/12/26 02:00:38;;;;;;;1.55;1.38;;;5.90;99.80;;;;;;5060070;28;20209;-86
2022/12/26 02:05:53;;;;;;;1.40;1.30;;;5.90;99.80;;;;;;5056633;28;20209;-86
2022/12/26 02:08:26;;;;;;;2.10;1.42;;;5.90;99.70;;;;;;5058291;28;20293;-86
2022/12/26 02:10:58;;;;;;;1.77;1.42;;;5.90;99.70;;;;;;5063144;28;20233;-86
2022/12/26 02:13:25;;;;;;;1.92;1.55;;;5.90;99.70;;;;;;5067873;28;20692;-86
2022/12/26 02:15:53;;;;;;;1.40;1.20;;;5.90;99.70;;;;;;5058773;28;20209;-86
2022/12/26 02:18:19;;;;;;;2.03;1.40;;;5.90;99.60;;;;;;5063761;28;20560;-86
2022/12/26 02:21:02;;;;;;;1.52;1.40;;;5.90;99.70;;;;;;5062620;28;20204;-86
2022/12/26 02:23:54;;;;;;;1.88;1.52;;;6.00;99.30;;;;;;5064894;28;20218;-86
2022/12/26 02:27:03;;;;;;;2.35;1.60;;;5.90;99.00;;;;;;5057280;28;20198;-86
2022/12/26 02:30:10;;;;;;;1.33;1.23;;;5.90;99.00;;;;;;5062986;28;20223;-86
2022/12/26 02:33:19;;;;;;;2.05;1.40;;;5.80;99.20;;;;;;5039889;28;20201;-86
2022/12/26 02:35:56;;;;;;;1.50;1.40;;;5.70;99.60;;;;;;5061934;28;20699;-86
2022/12/26 02:38:35;;;;;;;1.65;1.40;;;5.70;99.70;;;;;;5062940;28;20219;-86
2022/12/26 02:41:20;;;;;;;1.50;1.40;;;5.70;99.60;;;;;;5063639;28;20198;-86
2022/12/26 02:44:00;;;;;;;1.45;1.27;;;5.60;99.40;;;;;;5063703;28;20206;-86
2022/12/26 03:13:09;;;;;;;3.10;1.30;;;5.60;99.50;;;;;;5062624;28;20303;-86
2022/12/26 03:15:19;;;;;;;1.50;1.30;;;5.50;99.70;;;;;;5072276;28;20189;-86
2022/12/26 03:17:48;;;;;;;1.53;1.43;;;5.50;99.90;;;;;;5058672;28;20661;-86
2022/12/26 03:20:19;;;;;;;1.70;1.40;;;5.60;99.60;;;;;;5056319;28;20680;-86
2022/12/26 03:22:51;;;;;;;1.75;1.30;;;5.50;99.60;;;;;;5059276;28;20719;-86
2022/12/26 03:28:09;;;;;;;1.93;1.60;;;5.70;99.50;;;;;;5059681;28;20696;-86
2022/12/26 03:30:49;;;;;;;1.50;1.40;;;5.70;99.50;;;;;;5061339;28;20212;-86
2022/12/26 03:36:02;;;;;;;1.63;1.50;;;5.70;99.60;;;;;;5060070;28;20557;-86
2022/12/26 03:38:36;;;;;;;1.75;1.45;;;5.70;99.70;;;;;;5057205;28;20214;-86
2022/12/26 04:44:03;;;;;;;3.90;1.30;;;5.50;98.90;;;;;;5059852;28;20565;-85
2022/12/26 04:46:33;;;;;;;2.72;1.52;;;5.50;98.70;;;;;;5058456;28;20611;-85
2022/12/26 04:51:49;;;;;;;1.53;1.43;;;5.40;98.80;;;;;;5061387;28;20684;-85
2022/12/26 04:54:16;;;;;;;1.70;1.60;;;5.40;99.30;;;;;;5065114;28;20208;-85
2022/12/26 04:56:42;;;;;;;1.53;1.37;;;5.40;99.00;;;;;;5060238;28;20198;-85
2022/12/26 04:59:09;;;;;;;1.83;1.40;;;5.40;98.90;;;;;;5063359;28;20204;-85
2022/12/26 05:10:07;;;;;;;2.10;1.60;;;5.30;99.10;;;;;;5060392;28;20607;-85
2022/12/26 05:12:34;;;;;;;1.70;1.40;;;5.30;99.20;;;;;;5060811;28;20199;-85
2022/12/26 05:15:01;;;;;;;1.60;1.50;;;5.40;99.00;;;;;;5063018;28;20684;-85
2022/12/26 05:28:44;;;;;;;1.80;1.48;;;5.20;99.90;;;;;;5064159;28;20270;-85
2022/12/26 05:31:13;;;;;;;2.87;1.50;;;5.20;99.90;;;;;;5060114;28;20741;-85
2022/12/26 05:36:31;;;;;;;1.40;1.30;;;5.30;99.90;;;;;;5061291;28;20200;-85
2022/12/26 05:38:58;;;;;;;1.48;1.33;;;5.40;99.90;;;;;;5061055;28;20657;-85
2022/12/26 05:41:25;;;;;;;1.52;1.40;;;5.40;99.60;;;;;;5060835;28;20203;-85
2022/12/26 05:43:51;;;;;;;1.60;1.35;;;5.40;99.40;;;;;;5060115;28;20208;-85
2022/12/26 05:46:18;;;;;;;1.30;1.20;;;5.50;99.20;;;;;;5067962;28;20193;-85
2022/12/26 05:48:46;;;;;;;1.40;1.30;;;5.50;99.50;;;;;;5064786;28;20235;-84
2022/12/26 05:51:14;;;;;;;1.60;1.50;;;5.50;99.00;;;;;;5063590;28;20298;-84
2022/12/26 05:53:41;;;;;;;1.50;1.40;;;5.50;99.00;;;;;;5061679;28;20202;-85
2022/12/26 05:56:11;;;;;;;1.60;1.50;;;5.40;99.10;;;;;;5066391;28;20208;-85
2022/12/26 05:58:39;;;;;;;1.60;1.40;;;5.40;99.10;;;;;;5060188;28;20673;-85
2022/12/26 06:01:08;;;;;;;2.45;1.45;;;5.50;99.10;;;;;;5060931;28;20206;-85
2022/12/26 06:03:35;;;;;;;3.60;1.63;;;5.40;99.10;;;;;;5059843;28;20201;-85
2022/12/26 06:06:04;;;;;;;2.47;1.60;;;5.50;99.00;;;;;;5062127;28;20592;-85
2022/12/26 06:08:30;;;;;;;3.88;1.83;;;5.50;99.00;;;;;;5061607;28;20232;-86
2022/12/26 06:10:58;;;;;;;1.63;1.52;;;5.50;99.00;;;;;;5059455;28;20230;-87
2022/12/26 06:13:24;;;;;;;2.38;2.10;;;5.60;98.90;;;;;;5066255;28;20198;-87
2022/12/26 06:15:51;;;;;;;2.92;2.00;;;5.60;98.70;;;;;;5064646;28;20585;-87
2022/12/26 06:18:18;;;;;;;2.97;1.98;;;5.60;98.70;;;;;;5060770;28;20206;-87
2022/12/26 06:20:45;;;;;;;1.88;1.70;;;5.60;98.70;;;;;;5065524;28;20227;-87
2022/12/26 06:23:13;;;;;;;2.30;1.90;;;5.70;98.60;;;;;;5059002;28;20593;-87
2022/12/26 06:25:40;;;;;;;1.70;1.60;;;5.70;98.80;;;;;;5065562;28;20193;-87
2022/12/26 06:28:07;;;;;;;1.67;1.55;;;5.80;98.60;;;;;;5059342;28;20210;-87
2022/12/26 06:30:34;;;;;;;1.90;1.70;;;5.80;98.40;;;;;;5060671;28;20312;-87
2022/12/26 06:33:00;;;;;;;1.45;1.35;;;5.80;98.30;;;;;;5058667;28;20202;-87
2022/12/26 06:35:27;;;;;;;1.60;1.50;;;5.90;98.30;;;;;;5065257;28;20206;-87
2022/12/26 06:37:54;;;;;;;2.30;1.70;;;6.00;98.10;;;;;;5066438;28;20201;-87
2022/12/26 06:40:22;;;;;;;1.60;1.48;;;6.10;98.10;;;;;;5059265;28;20671;-87
2022/12/26 06:42:49;;;;;;;2.90;1.90;;;6.10;97.90;;;;;;5063242;28;20201;-87
2022/12/26 06:45:16;;;;;;;2.70;1.80;;;6.10;98.20;;;;;;5054605;28;20197;-87
2022/12/26 06:47:43;;;;;;;1.85;1.70;;;6.20;97.80;;;;;;5059397;28;20201;-87
2022/12/26 06:50:10;;;;;;;2.25;1.90;;;6.30;97.60;;;;;;5056385;28;20275;-87
2022/12/26 06:52:37;;;;;;;1.50;1.40;;;6.30;97.60;;;;;;5063533;28;20575;-87
2022/12/26 06:55:05;;;;;;;1.70;1.60;;;6.40;97.40;;;;;;5055827;28;20198;-87
2022/12/26 06:57:33;;;;;;;1.40;1.30;;;6.50;97.10;;;;;;5065627;28;20211;-87
2022/12/26 06:59:59;;;;;;;1.42;1.33;;;6.60;97.00;;;;;;5064408;28;20219;-87
2022/12/26 07:02:26;;;;;;;1.92;1.70;;;6.60;96.90;;;;;;5059855;28;20190;-87
2022/12/26 07:04:53;;;;;;;1.75;1.55;;;6.70;96.80;;;;;;5063197;28;20569;-87
2022/12/26 07:07:20;;;;;;;1.80;1.50;;;6.70;96.60;;;;;;5060954;28;20197;-87
2022/12/26 07:09:47;;;;;;;1.38;1.27;;;6.70;96.60;;;;;;5056911;28;20602;-87
2022/12/26 07:12:13;;;;;;;1.50;1.40;;;6.70;96.60;;;;;;5062278;28;20197;-87
2022/12/26 07:14:42;;;;;;;1.40;1.30;;;6.70;96.50;;;;;;5058822;28;20209;-86
2022/12/26 07:17:10;;;;;;;1.33;1.23;;;6.70;96.50;;;;;;5063500;28;20224;-87
2022/12/26 07:19:37;;;;;;;1.42;1.33;;;6.70;96.40;;;;;;5057872;28;20657;-87
2022/12/26 07:22:04;;;;;;;1.40;1.30;;;6.80;96.10;;;;;;5062474;28;20207;-87
2022/12/26 07:24:30;;;;;;;2.05;1.45;;;6.80;96.10;;;;;;5062766;28;20193;-87
2022/12/26 07:26:57;;;;;;;1.98;1.60;;;6.80;96.10;;;;;;5061462;28;20566;-87
2022/12/26 07:29:25;;;;;;;1.73;1.42;;;6.90;95.90;;;;;;5062486;28;20226;-87
2022/12/26 07:31:53;;;;;;;1.45;1.35;;;6.90;95.90;;;;;;5061396;28;20205;-87
2022/12/26 07:34:20;;;;;;;1.50;1.40;;;7.00;95.50;;;;;;5062736;28;20197;-87
2022/12/26 07:36:47;;;;;;;1.50;1.40;;;7.10;95.50;;;;;;5062419;28;20198;-86
2022/12/26 07:39:14;;;;;;;2.25;1.38;;;7.10;95.50;;;;;;5064810;28;20201;-87
2022/12/26 07:41:59;;;;;;;1.40;1.30;;;7.10;95.50;;;;;;5059410;28;20198;-87
2022/12/26 07:44:27;;;;;;;1.40;1.30;;;7.10;95.50;;;;;;5056744;28;20913;-87
2022/12/26 07:46:57;;;;;;;1.75;1.63;;;7.20;95.50;;;;;;5060945;28;20204;-87
2022/12/26 07:49:24;;;;;;;1.48;1.38;;;7.20;95.50;;;;;;5061371;28;20229;-87
2022/12/26 07:51:51;;;;;;;1.50;1.40;;;7.30;95.60;;;;;;5063953;28;20201;-87
2022/12/26 07:54:18;;;;;;;1.40;1.30;;;7.40;95.60;;;;;;5063113;28;20204;-87
2022/12/26 07:56:45;;;;;;;1.50;1.40;;;7.50;95.90;;;;;;5061111;28;20210;-87
2022/12/26 07:59:14;;;;;;;1.40;1.30;;;7.70;93.60;;;;;;5059977;28;20197;-87
2022/12/26 08:01:41;;;;;;;1.50;1.40;;;7.80;93.10;;;;;;5058357;28;20201;-87
2022/12/26 08:04:09;;;;;;;1.42;1.30;;;8.00;92.60;;;;;;5058473;28;20190;-87
2022/12/26 08:06:36;;;;;;;1.58;1.48;;;8.10;92.10;;;;;;5058911;28;20205;-87
2022/12/26 08:09:04;;;;;;;1.85;1.40;;;8.20;91.60;;;;;;5059200;28;20816;-87
2022/12/26 08:11:33;;;;;;;1.98;1.42;;;8.30;91.00;;;;;;5059429;28;20206;-87
2022/12/26 08:14:01;;;;;;;2.13;1.60;;;8.50;90.70;;;;;;5060410;28;20190;-87
2022/12/26 08:16:28;;;;;;;2.45;1.50;;;8.60;90.40;;;;;;5062069;28;20262;-87
2022/12/26 08:18:54;;;;;;;1.55;1.20;;;8.50;90.40;;;;;;5064831;28;20215;-87
2022/12/26 08:21:22;;;;;;;1.63;1.40;;;8.50;90.40;;;;;;5060591;28;20208;-87
2022/12/26 08:23:49;;;;;;;1.88;1.33;;;8.50;90.40;;;;;;5067866;28;20229;-87
2022/12/26 08:26:21;;;;;;;2.55;2.08;;;8.60;90.50;;;;;;5062233;28;20575;-87
2022/12/26 08:28:48;;;;;;;4.28;3.20;;;8.70;90.70;;;;;;5067449;28;20201;-87
2022/12/26 08:31:15;;;;;;;3.58;2.53;;;9.00;90.30;;;;;;5067073;28;20222;-87
2022/12/26 08:33:42;;;;;;;3.65;2.47;;;9.10;89.70;;;;;;5065240;28;20662;-87
2022/12/26 08:36:10;;;;;;;2.80;2.10;;;9.20;89.30;;;;;;5068597;28;20221;-86
2022/12/26 08:38:39;;;;;;;2.08;1.65;;;9.30;88.60;;;;;;5062502;28;20658;-87
2022/12/26 08:41:07;;;;;;;2.28;1.80;;;9.40;88.40;;;;;;5065442;28;20205;-87
2022/12/26 08:43:34;;;;;;;1.65;1.55;;;9.50;88.40;;;;;;5061173;28;20202;-87
2022/12/26 08:46:04;;;;;;;2.50;1.60;;;9.70;86.60;;;;;;5069740;28;20205;-87
2022/12/26 08:48:31;;;;;;;2.33;1.60;;;10.00;84.10;;;;;;5064243;28;20206;-87
2022/12/26 08:51:00;;;;;;;2.45;1.80;;;10.20;83.10;;;;;;5064374;28;20224;-87
2022/12/26 08:53:28;;;;;;;1.33;1.23;;;10.40;82.10;;;;;;5063051;28;20204;-87
2022/12/26 08:55:57;;;;;;;1.38;1.27;;;10.90;80.50;;;;;;5068454;28;20557;-87
2022/12/26 08:58:24;;;;;;;1.63;1.52;;;11.70;76.90;;;;;;5062497;28;20203;-88
2022/12/26 09:00:51;;;;;;;2.35;1.30;;;12.50;56.80;;;;;;5062887;28;20218;-87
2022/12/26 09:03:18;;;;;;;2.00;1.67;;;13.30;49.80;;;;;;5063412;28;20201;-87
2022/12/26 09:05:45;;;;;;;2.22;1.77;;;13.70;48.00;;;;;;5065017;28;20212;-85
2022/12/26 09:08:12;;;;;;;1.50;1.40;;;13.80;41.80;;;;;;5060064;28;20201;-85
2022/12/26 09:10:39;;;;;;;2.28;1.30;;;13.70;41.50;;;;;;5062276;28;20624;-85
2022/12/26 09:13:07;;;;;;;1.80;1.70;;;13.60;41.70;;;;;;5061468;28;20201;-84
2022/12/26 09:15:34;;;;;;;2.10;1.50;;;13.80;44.40;;;;;;5060046;28;20548;-85
2022/12/26 09:18:01;;;;;;;1.83;1.50;;;14.10;38.90;;;;;;5060307;28;20267;-85
2022/12/26 09:20:28;;;;;;;2.78;1.63;;;14.60;39.50;;;;;;5066621;28;20240;-85
2022/12/26 09:22:55;;;;;;;1.52;1.40;;;15.20;33.90;;;;;;5057844;28;20230;-85
2022/12/26 09:25:23;;;;;;;1.65;1.55;;;15.70;30.90;;;;;;5065344;28;20574;-85
2022/12/26 09:27:52;;;;;;;3.03;1.50;;;16.10;30.10;;;;;;5061262;28;20217;-83
2022/12/26 09:30:22;;;;;;;1.60;1.50;;;16.70;29.30;;;;;;5060304;28;20219;-83
2022/12/26 09:32:49;;;;;;;1.63;1.42;;;17.20;26.10;;;;;;5062397;28;20228;-83
2022/12/26 09:35:16;;;;;;;1.60;1.50;;;17.50;23.00;;;;;;5069113;28;20320;-83
2022/12/26 09:37:42;;;;;;;2.25;1.40;;;17.80;21.30;;;;;;5063734;28;20194;-83
2022/12/26 09:40:33;;;;;;;1.60;1.50;;;17.60;22.00;;;;;;5063933;28;20206;-82
2022/12/26 09:43:15;;;;;;;1.50;1.40;;;17.50;20.70;;;;;;5060646;28;20212;-83
2022/12/26 09:45:54;;;;;;;1.90;1.58;;;16.90;22.30;;;;;;5062752;28;20575;-83
2022/12/26 09:48:27;;;;;;;1.83;1.73;;;16.70;22.90;;;;;;5064184;28;20208;-83
2022/12/26 09:50:54;;;;;;;1.67;1.58;;;16.40;23.60;;;;;;5063134;28;20248;-83
2022/12/26 09:53:28;;;;;;;1.90;1.80;;;16.00;25.90;;;;;;5064756;28;20204;-83
2022/12/26 09:55:58;;;;;;;1.40;1.30;;;15.60;26.50;;;;;;5066547;28;20197;-83
2022/12/26 09:58:29;;;;;;;1.30;1.30;;;15.20;28.00;;;;;;5053704;28;20554;-83
2022/12/26 10:01:02;;;;;;;2.80;1.40;;;15.00;27.90;;;;;;5061861;28;20666;-82
2022/12/26 10:03:30;;;;;;;1.50;1.40;;;14.80;27.70;;;;;;5060444;28;20189;-85
2022/12/26 10:06:13;;;;;;;2.60;1.60;;;14.70;27.60;;;;;;5061110;28;20202;-85
2022/12/26 10:09:12;;;;;;;1.45;1.35;;;14.40;27.40;;;;;;5061865;28;20206;-86
2022/12/26 10:11:56;;;;;;;1.63;1.40;;;14.20;29.20;;;;;;5063360;28;20231;-85
2022/12/26 10:14:33;;;;;;;2.72;1.40;;;14.00;30.10;;;;;;5062480;28;20189;-85
2022/12/26 10:17:05;;;;;;;3.78;1.73;;;14.00;29.10;;;;;;5059868;28;20201;-85
2022/12/26 10:19:57;;;;;;;1.52;1.30;;;13.90;30.90;;;;;;5067462;28;20205;-85
2022/12/26 10:22:37;;;;;;;2.13;1.50;;;13.70;30.30;;;;;;5059601;28;20210;-85
2022/12/26 10:25:14;;;;;;;1.60;1.50;;;13.80;30.40;;;;;;5064847;28;20653;-85
2022/12/26 10:27:42;;;;;;;1.77;1.67;;;13.70;31.20;;;;;;5059366;28;20201;-85
2022/12/26 10:30:16;;;;;;;1.75;1.40;;;13.80;31.70;;;;;;5060333;28;20570;-85
2022/12/26 10:32:49;;;;;;;1.45;1.30;;;14.00;30.20;;;;;;5059609;28;20201;-85
2022/12/26 10:35:22;;;;;;;1.50;1.40;;;14.30;30.10;;;;;;5058723;28;20198;-85
2022/12/26 10:37:50;;;;;;;2.90;1.48;;;14.40;30.30;;;;;;5053450;28;20209;-85
2022/12/26 10:40:28;;;;;;;1.70;1.60;;;14.70;28.50;;;;;;5060061;28;20206;-85
2022/12/26 10:42:57;;;;;;;1.50;1.33;;;14.90;27.80;;;;;;5059181;28;20193;-85
2022/12/26 10:45:32;;;;;;;1.60;1.50;;;15.10;28.00;;;;;;5056597;28;20201;-85
2022/12/26 10:48:00;;;;;;;1.83;1.40;;;15.10;28.00;;;;;;5057127;28;20194;-85
2022/12/26 10:50:30;;;;;;;3.58;1.80;;;14.90;27.70;;;;;;5059547;28;20236;-85
2022/12/26 10:52:58;;;;;;;1.65;1.52;;;14.70;27.70;;;;;;5064908;28;20209;-85
2022/12/26 10:55:29;;;;;;;1.63;1.42;;;14.60;27.50;;;;;;5062569;28;20575;-85
2022/12/26 10:58:00;;;;;;;1.60;1.50;;;14.50;29.00;;;;;;5067387;28;20193;-85
2022/12/26 11:00:28;;;;;;;2.00;1.60;;;14.30;30.70;;;;;;5059877;28;20202;-85
2022/12/26 11:03:07;;;;;;;3.85;1.42;;;14.30;30.40;;;;;;5059731;28;20208;-85
2022/12/26 11:05:38;;;;;;;2.70;1.52;;;14.30;31.00;;;;;;5063222;28;20200;-85
2022/12/26 11:08:15;;;;;;;1.40;1.20;;;14.30;30.80;;;;;;5060234;28;20198;-85
2022/12/26 11:10:46;;;;;;;1.60;1.48;;;14.30;31.20;;;;;;5061275;28;20240;-85
2022/12/26 11:13:21;;;;;;;2.58;1.60;;;14.30;30.60;;;;;;5058451;28;20276;-85
2022/12/26 11:15:50;;;;;;;2.50;1.60;;;14.20;31.40;;;;;;5060872;28;20201;-85
2022/12/26 11:18:22;;;;;;;1.75;1.60;;;14.10;32.10;;;;;;5064069;28;20194;-85
2022/12/26 11:20:50;;;;;;;1.83;1.40;;;14.00;31.80;;;;;;5066764;28;20205;-85
2022/12/26 11:23:26;;;;;;;2.50;1.70;;;14.00;32.20;;;;;;5058925;28;20240;-85
2022/12/26 11:25:55;;;;;;;1.70;1.45;;;14.00;32.20;;;;;;5065223;28;20204;-85
2022/12/26 11:28:33;;;;;;;2.67;1.92;;;14.10;31.80;;;;;;5054765;28;20205;-85
2022/12/26 11:31:02;;;;;;;1.90;1.40;;;14.00;32.00;;;;;;5057392;28;20225;-84
2022/12/26 11:33:33;;;;;;;1.60;1.50;;;14.00;32.70;;;;;;5058981;28;20590;-85
2022/12/26 11:36:07;;;;;;;1.50;1.40;;;13.90;33.20;;;;;;5064968;28;20197;-85
2022/12/26 11:38:45;;;;;;;1.90;1.70;;;13.80;33.80;;;;;;5061053;28;20197;-85
2022/12/26 11:41:31;;;;;;;2.00;1.52;;;13.70;34.60;;;;;;5062680;28;20205;-85
2022/12/26 11:44:02;;;;;;;2.28;1.60;;;13.60;34.80;;;;;;5054207;28;20208;-85
2022/12/26 11:46:35;;;;;;;2.08;1.90;;;13.60;35.80;;;;;;5059787;28;20197;-85
2022/12/26 11:49:04;;;;;;;2.05;1.60;;;13.50;36.30;;;;;;5060739;28;20222;-85
2022/12/26 11:51:40;;;;;;;2.28;1.80;;;13.50;36.80;;;;;;5055407;28;20233;-85
2022/12/26 11:54:20;;;;;;;1.90;1.70;;;13.50;37.10;;;;;;5057270;28;20616;-85
2022/12/26 11:56:47;;;;;;;2.47;1.67;;;13.40;37.50;;;;;;5066907;28;20200;-85
2022/12/26 11:59:22;;;;;;;1.90;1.70;;;13.40;38.00;;;;;;5066444;28;20652;-85
2022/12/26 12:02:12;;;;;;;3.65;1.92;;;13.40;38.60;;;;;;5064358;28;20209;-85
2022/12/26 12:04:40;;;;;;;2.90;1.80;;;13.40;39.10;;;;;;5067230;28;20241;-85
2022/12/26 12:07:16;;;;;;;2.45;1.85;;;13.40;39.30;;;;;;5064519;28;20205;-85
2022/12/26 12:09:50;;;;;;;2.78;1.60;;;13.40;40.40;;;;;;5066555;28;20229;-85
2022/12/26 12:12:22;;;;;;;3.20;1.80;;;13.40;42.30;;;;;;5059675;28;20239;-85
2022/12/26 12:15:00;;;;;;;2.28;1.90;;;13.50;42.10;;;;;;5066387;28;20201;-85
2022/12/26 12:17:34;;;;;;;2.92;1.75;;;13.50;42.80;;;;;;5063499;28;20277;-85
2022/12/26 12:20:28;;;;;;;1.58;1.48;;;13.50;48.10;;;;;;5065801;28;20205;-85
2022/12/26 12:23:11;;;;;;;3.83;1.73;;;13.50;51.50;;;;;;5056048;28;20255;-85
2022/12/26 12:25:51;;;;;;;6.22;1.95;;;13.40;60.80;;;;;;5073046;28;20205;-85
2022/12/26 12:28:46;;;;;;;2.90;2.20;;;13.30;66.90;;;;;;5057527;28;20227;-85
2022/12/26 12:34:32;;;;;;;3.05;2.25;;;12.80;86.30;;;;;;5068959;28;20205;-85
2022/12/26 12:37:13;;;;;;;2.65;2.10;;;12.50;90.10;;;;;;5059735;28;20733;-85
2022/12/26 12:39:52;;;;;;;2.30;2.10;;;12.40;90.90;;;;;;5069124;28;20203;-85
2022/12/26 12:42:34;;;;;;;4.97;2.40;;;12.30;91.50;;;;;;5056420;28;20213;-85
2022/12/26 12:45:30;;;;;;;2.20;2.00;;;12.30;93.20;;;;;;5054510;28;20205;-85
2022/12/26 12:48:25;;;;;;;3.38;2.35;;;12.10;94.60;;;;;;5057430;28;20233;-85
2022/12/26 12:51:00;;;;;;;2.53;2.15;;;11.80;95.50;;;;;;5058221;28;20222;-85
2022/12/26 12:53:44;;;;;;;3.17;2.58;;;11.60;96.10;;;;;;5063385;28;20197;-85
2022/12/26 12:56:22;;;;;;;3.13;2.50;;;11.40;96.90;;;;;;5065434;28;20556;-85
2022/12/26 12:59:00;;;;;;;4.95;2.60;;;11.30;97.30;;;;;;5064666;28;20464;-85
2022/12/26 13:01:33;;;;;;;5.43;2.42;;;11.20;97.50;;;;;;5064680;28;20470;-85
2022/12/26 13:04:06;;;;;;;3.58;2.78;;;11.20;98.20;;;;;;5066384;28;20202;-86
2022/12/26 13:06:38;;;;;;;3.08;2.70;;;11.10;98.20;;;;;;5062110;28;20664;-85
2022/12/26 13:09:15;;;;;;;3.88;2.60;;;11.00;98.60;;;;;;5062257;28;20225;-85
2022/12/26 13:11:46;;;;;;;4.30;2.85;;;10.90;99.10;;;;;;5063507;28;20317;-85
2022/12/26 13:14:19;;;;;;;3.30;3.00;;;10.90;99.30;;;;;;5063591;28;20198;-85
2022/12/26 13:16:50;;;;;;;6.25;3.13;;;10.80;99.90;;;;;;5055884;28;20206;-85
2022/12/26 13:19:20;;;;;;;5.00;3.10;;;10.70;99.90;;;;;;5062685;28;20206;-85
2022/12/26 13:21:49;;;;;;;4.93;3.05;;;10.60;99.90;;;;;;5061209;28;20209;-85
2022/12/26 13:24:24;;;;;;;4.70;3.08;;;10.60;99.90;;;;;;5060051;28;20588;-85
2022/12/26 13:26:57;;;;;;;3.95;3.17;;;10.60;99.90;;;;;;5062695;28;20223;-85
2022/12/26 13:29:34;;;;;;;6.50;3.50;;;10.60;99.90;;;;;;5057053;28;20202;-85
2022/12/26 13:32:04;;;;;;;4.75;3.20;;;10.60;99.90;;;;;;5065934;28;20217;-85
2022/12/26 13:34:31;;;;;;;7.40;3.28;;;10.60;99.90;;;;;;5069504;28;20209;-85
2022/12/26 13:36:59;;;;;;;4.57;3.22;;;10.50;99.90;;;;;;5067335;28;20220;-85
2022/12/26 13:39:38;;;;;;;4.75;3.45;;;10.50;99.90;;;;;;5067366;28;20261;-85
2022/12/26 13:45:46;;;;;;;5.53;3.92;;;10.30;99.90;;;;;;5053373;28;20673;-85
2022/12/26 13:49:01;;;;;;;4.78;3.88;;;10.20;99.90;;;;;;5059123;28;20201;-85
2022/12/26 13:51:50;;;;;;;10.98;9.00;;;10.20;99.90;;;;;;5054289;28;20210;-85
2022/12/26 13:54:19;;;;;;;14.73;10.32;;;10.20;99.90;;;;;;5056713;28;20205;-86
2022/12/26 13:57:12;;;;;;;17.58;11.00;;;10.10;99.90;;;;;;5064053;28;20619;-86
2022/12/26 13:59:45;;;;;;;14.43;8.32;;;10.10;99.90;;;;;;5069783;28;20197;-86
2022/12/26 14:02:31;;;;;;;10.18;5.88;;;10.10;99.90;;;;;;5057438;28;20198;-85
2022/12/26 14:05:10;;;;;;;8.68;4.68;;;10.10;99.90;;;;;;5056388;28;20205;-85
2022/12/26 14:07:44;;;;;;;6.20;4.07;;;10.10;99.90;;;;;;5064373;28;20831;-85
2022/12/26 14:10:18;;;;;;;6.15;3.78;;;10.10;99.90;;;;;;5066079;28;20225;-85
2022/12/26 14:13:07;;;;;;;3.53;3.20;;;10.10;99.90;;;;;;5053077;28;20225;-85
2022/12/26 14:15:47;;;;;;;4.70;3.30;;;10.10;99.90;;;;;;5062447;28;20193;-85
2022/12/26 14:18:32;;;;;;;3.85;2.85;;;10.00;99.90;;;;;;5064032;28;20197;-85
2022/12/26 14:21:18;;;;;;;5.70;3.05;;;9.90;99.90;;;;;;5060074;28;20209;-85
2022/12/26 14:23:52;;;;;;;3.85;2.83;;;9.90;99.90;;;;;;5063943;28;20539;-84
2022/12/26 14:26:31;;;;;;;4.15;3.00;;;9.80;99.90;;;;;;5071599;28;20271;-85
2022/12/26 14:29:07;;;;;;;2.95;2.60;;;9.80;99.90;;;;;;5063220;28;20236;-84
2022/12/26 14:31:42;;;;;;;3.75;3.15;;;9.80;99.90;;;;;;5059705;28;20693;-85
2022/12/26 14:34:21;;;;;;;4.80;2.78;;;9.80;99.90;;;;;;5060361;28;20189;-85
2022/12/26 14:36:55;;;;;;;5.03;3.20;;;9.70;99.90;;;;;;5063105;28;20208;-85
2022/12/26 14:39:35;;;;;;;4.15;3.00;;;9.80;99.90;;;;;;5059219;28;20197;-85
2022/12/26 14:45:36;;;;;;;4.78;2.92;;;9.60;99.90;;;;;;5053296;28;20247;-85
2022/12/26 14:48:39;;;;;;;4.20;2.60;;;9.60;99.90;;;;;;5065360;28;20267;-85
2022/12/26 14:51:42;;;;;;;4.72;3.20;;;9.50;99.90;;;;;;5038750;28;20207;-85
2022/12/26 14:54:36;;;;;;;3.70;2.78;;;9.40;99.90;;;;;;5067047;28;20205;-85
2022/12/26 14:57:40;;;;;;;4.82;2.97;;;9.50;99.90;;;;;;5059732;28;20212;-85
2022/12/26 15:00:38;;;;;;;3.40;2.95;;;9.50;99.90;;;;;;5052720;28;20680;-85
2022/12/26 15:03:44;;;;;;;5.13;2.83;;;9.40;99.90;;;;;;5054302;28;20658;-85
2022/12/26 15:06:46;;;;;;;5.20;2.95;;;9.30;99.90;;;;;;5059950;28;20212;-85
2022/12/26 15:09:38;;;;;;;4.28;2.90;;;9.30;99.90;;;;;;5063266;28;20248;-85
2022/12/26 15:12:25;;;;;;;4.07;3.00;;;9.30;99.90;;;;;;5050754;28;20220;-85
2022/12/26 15:15:17;;;;;;;7.35;3.13;;;9.30;99.90;;;;;;5061359;28;20197;-85
2022/12/26 15:17:57;;;;;;;5.55;3.22;;;9.20;99.90;;;;;;5065832;28;20227;-85
2022/12/26 15:20:53;;;;;;;4.68;3.17;;;9.30;99.90;;;;;;5060058;28;20227;-86
2022/12/26 15:23:47;;;;;;;5.10;2.90;;;9.30;99.90;;;;;;5060979;28;20224;-85
2022/12/26 15:26:29;;;;;;;4.65;3.03;;;9.40;99.90;;;;;;5061263;28;20290;-85
2022/12/26 15:29:29;;;;;;;3.78;3.10;;;9.40;99.90;;;;;;5067580;28;20224;-85
2022/12/26 15:32:05;;;;;;;5.10;2.70;;;9.30;99.90;;;;;;5056490;28;20220;-85
2022/12/26 15:34:45;;;;;;;5.07;2.53;;;9.30;99.90;;;;;;5059896;28;20193;-85
2022/12/26 15:37:35;;;;;;;2.85;2.47;;;9.30;99.90;;;;;;5064721;28;20204;-85